sensor_id;sensor_type;location;lat;lon;timestamp;pressure;altitude;pressure_sealevel;temperature;humidity
8229;BME280;4155;50.118;8.714;2022-11-15T00:01:15;99779.44;;;9.60;92.81
8229;BME280;4155;50.118;8.714;2022-11-15T00:03:46;99774.06;;;9.60;92.75
8229;BME280;4155;50.118;8.714;2022-11-15T00:06:21;99765.03;;;9.61;92.81
8229;BME280;4155;50.118;8.714;2022-11-15T00:08:49;99774.66;;;9.55;92.39
8229;BME280;4155;50.118;8.714;2022-11-15T00:11:17;99786.16;;;9.49;92.83
8229;BME280;4155;50.118;8.714;2022-11-15T00:13:44;99769.41;;;9.41;92.96
8229;BME280;4155;50.118;8.714;2022-11-15T00:16:12;99777.66;;;9.46;93.69
8229;BME280;4155;50.118;8.714;2022-11-15T00:18:39;99768.16;;;9.37;93.54
8229;BME280;4155;50.118;8.714;2022-11-15T00:21:17;99772.63;;;9.30;94.38
8229;BME280;4155;50.118;8.714;2022-11-15T00:23:45;99772.00;;;9.27;94.86
8229;BME280;4155;50.118;8.714;2022-11-15T00:26:14;99765.63;;;9.28;94.94
8229;BME280;4155;50.118;8.714;2022-11-15T00:28:42;99766.44;;;9.29;95.09
8229;BME280;4155;50.118;8.714;2022-11-15T00:31:12;99763.97;;;9.27;95.47
8229;BME280;4155;50.118;8.714;2022-11-15T00:33:42;99765.22;;;9.32;95.31
8229;BME280;4155;50.118;8.714;2022-11-15T00:36:10;99767.28;;;9.30;95.16
8229;BME280;4155;50.118;8.714;2022-11-15T00:38:40;99772.22;;;9.33;94.88
8229;BME280;4155;50.118;8.714;2022-11-15T00:41:08;99769.56;;;9.33;95.02
8229;BME280;4155;50.118;8.714;2022-11-15T00:43:36;99761.72;;;9.31;95.11
8229;BME280;4155;50.118;8.714;2022-11-15T00:46:04;99760.91;;;9.31;95.18
8229;BME280;4155;50.118;8.714;2022-11-15T00:48:31;99758.00;;;9.25;94.86
8229;BME280;4155;50.118;8.714;2022-11-15T00:50:59;99758.31;;;9.16;95.68
8229;BME280;4155;50.118;8.714;2022-11-15T00:53:27;99763.91;;;9.21;95.64
8229;BME280;4155;50.118;8.714;2022-11-15T00:55:57;99759.88;;;9.32;95.75
8229;BME280;4155;50.118;8.714;2022-11-15T00:58:25;99763.78;;;9.36;95.44
8229;BME280;4155;50.118;8.714;2022-11-15T01:00:53;99753.09;;;9.36;94.87
8229;BME280;4155;50.118;8.714;2022-11-15T01:03:21;99749.16;;;9.32;95.42
8229;BME280;4155;50.118;8.714;2022-11-15T01:05:49;99744.00;;;9.30;95.37
8229;BME280;4155;50.118;8.714;2022-11-15T01:08:16;99748.34;;;9.31;95.65
8229;BME280;4155;50.118;8.714;2022-11-15T01:10:44;99742.66;;;9.41;95.17
8229;BME280;4155;50.118;8.714;2022-11-15T01:13:13;99743.13;;;9.51;95.24
8229;BME280;4155;50.118;8.714;2022-11-15T01:15:41;99737.53;;;9.46;94.94
8229;BME280;4155;50.118;8.714;2022-11-15T01:18:09;99743.88;;;9.38;95.25
8229;BME280;4155;50.118;8.714;2022-11-15T01:20:39;99729.06;;;9.42;94.83
8229;BME280;4155;50.118;8.714;2022-11-15T01:23:07;99734.28;;;9.50;94.58
8229;BME280;4155;50.118;8.714;2022-11-15T01:25:35;99735.84;;;9.38;94.49
8229;BME280;4155;50.118;8.714;2022-11-15T01:28:02;99737.69;;;9.38;94.54
8229;BME280;4155;50.118;8.714;2022-11-15T01:30:31;99742.56;;;9.27;94.76
8229;BME280;4155;50.118;8.714;2022-11-15T01:32:59;99732.28;;;9.31;95.30
8229;BME280;4155;50.118;8.714;2022-11-15T01:35:27;99731.66;;;9.29;95.01
8229;BME280;4155;50.118;8.714;2022-11-15T01:37:54;99727.81;;;9.38;94.79
8229;BME280;4155;50.118;8.714;2022-11-15T01:40:25;99726.94;;;9.31;94.50
8229;BME280;4155;50.118;8.714;2022-11-15T01:42:52;99739.25;;;9.25;95.03
8229;BME280;4155;50.118;8.714;2022-11-15T01:45:21;99730.25;;;9.33;94.64
8229;BME280;4155;50.118;8.714;2022-11-15T01:47:51;99733.16;;;9.38;94.56
8229;BME280;4155;50.118;8.714;2022-11-15T01:50:25;99724.19;;;9.52;94.05
8229;BME280;4155;50.118;8.714;2022-11-15T01:52:55;99720.63;;;9.45;93.72
8229;BME280;4155;50.118;8.714;2022-11-15T01:55:26;99707.25;;;9.45;93.77
8229;BME280;4155;50.118;8.714;2022-11-15T01:57:57;99716.34;;;9.51;94.00
8229;BME280;4155;50.118;8.714;2022-11-15T02:00:26;99712.66;;;9.52;94.11
8229;BME280;4155;50.118;8.714;2022-11-15T02:02:56;99703.25;;;9.63;93.58
8229;BME280;4155;50.118;8.714;2022-11-15T02:05:23;99717.25;;;9.65;93.08
8229;BME280;4155;50.118;8.714;2022-11-15T02:07:51;99711.53;;;9.74;93.12
8229;BME280;4155;50.118;8.714;2022-11-15T02:10:21;99707.50;;;9.92;91.75
8229;BME280;4155;50.118;8.714;2022-11-15T02:12:49;99706.69;;;9.98;91.44
8229;BME280;4155;50.118;8.714;2022-11-15T02:15:17;99689.00;;;10.03;91.04
8229;BME280;4155;50.118;8.714;2022-11-15T02:18:02;99692.25;;;9.99;91.16
8229;BME280;4155;50.118;8.714;2022-11-15T02:20:41;99684.06;;;10.00;91.24
8229;BME280;4155;50.118;8.714;2022-11-15T02:26:37;99666.13;;;10.07;90.91
8229;BME280;4155;50.118;8.714;2022-11-15T02:29:13;99666.56;;;10.11;90.42
8229;BME280;4155;50.118;8.714;2022-11-15T02:31:51;99664.50;;;10.13;90.07
8229;BME280;4155;50.118;8.714;2022-11-15T02:34:28;99656.88;;;10.17;90.19
8229;BME280;4155;50.118;8.714;2022-11-15T02:37:10;99654.47;;;10.28;89.69
8229;BME280;4155;50.118;8.714;2022-11-15T02:39:45;99650.75;;;10.36;88.94
8229;BME280;4155;50.118;8.714;2022-11-15T02:42:18;99646.56;;;10.20;88.91
8229;BME280;4155;50.118;8.714;2022-11-15T02:45:07;99657.28;;;10.20;89.04
8229;BME280;4155;50.118;8.714;2022-11-15T02:47:43;99650.50;;;10.11;89.37
8229;BME280;4155;50.118;8.714;2022-11-15T02:50:16;99643.28;;;10.11;89.52
8229;BME280;4155;50.118;8.714;2022-11-15T02:52:46;99655.00;;;10.04;89.66
8229;BME280;4155;50.118;8.714;2022-11-15T02:55:29;99654.75;;;9.99;89.94
8229;BME280;4155;50.118;8.714;2022-11-15T02:58:19;99660.13;;;9.92;90.15
8229;BME280;4155;50.118;8.714;2022-11-15T03:00:55;99654.97;;;9.91;90.75
8229;BME280;4155;50.118;8.714;2022-11-15T03:03:42;99648.13;;;9.88;90.82
8229;BME280;4155;50.118;8.714;2022-11-15T03:06:21;99654.28;;;9.75;91.41
8229;BME280;4155;50.118;8.714;2022-11-15T03:09:03;99640.63;;;9.64;91.49
8229;BME280;4155;50.118;8.714;2022-11-15T03:11:36;99645.38;;;9.62;91.74
8229;BME280;4155;50.118;8.714;2022-11-15T03:14:12;99643.47;;;9.55;92.18
8229;BME280;4155;50.118;8.714;2022-11-15T03:16:48;99636.69;;;9.46;92.07
8229;BME280;4155;50.118;8.714;2022-11-15T03:19:26;99646.72;;;9.38;92.67
8229;BME280;4155;50.118;8.714;2022-11-15T03:21:59;99648.72;;;9.36;93.39
8229;BME280;4155;50.118;8.714;2022-11-15T03:24:30;99638.44;;;9.33;93.26
8229;BME280;4155;50.118;8.714;2022-11-15T03:27:01;99635.97;;;9.31;93.11
8229;BME280;4155;50.118;8.714;2022-11-15T03:29:32;99646.03;;;9.29;93.24
8229;BME280;4155;50.118;8.714;2022-11-15T03:32:05;99649.53;;;9.30;93.34
8229;BME280;4155;50.118;8.714;2022-11-15T03:34:39;99654.28;;;9.27;93.21
8229;BME280;4155;50.118;8.714;2022-11-15T03:37:10;99655.47;;;9.25;93.20
8229;BME280;4155;50.118;8.714;2022-11-15T03:39:42;99646.00;;;9.22;93.29
8229;BME280;4155;50.118;8.714;2022-11-15T03:42:20;99651.13;;;9.24;93.75
8229;BME280;4155;50.118;8.714;2022-11-15T03:44:54;99649.91;;;9.20;93.67
8229;BME280;4155;50.118;8.714;2022-11-15T03:47:27;99644.94;;;9.17;93.96
8229;BME280;4155;50.118;8.714;2022-11-15T03:50:01;99648.19;;;9.12;94.24
8229;BME280;4155;50.118;8.714;2022-11-15T03:52:31;99648.00;;;9.14;94.08
8229;BME280;4155;50.118;8.714;2022-11-15T03:55:03;99641.81;;;9.13;94.32
8229;BME280;4155;50.118;8.714;2022-11-15T03:57:31;99638.72;;;9.10;94.67
8229;BME280;4155;50.118;8.714;2022-11-15T03:59:59;99648.59;;;9.09;94.29
8229;BME280;4155;50.118;8.714;2022-11-15T04:02:27;99650.66;;;9.07;94.64
8229;BME280;4155;50.118;8.714;2022-11-15T04:04:55;99650.50;;;9.15;94.88
8229;BME280;4155;50.118;8.714;2022-11-15T04:07:26;99657.31;;;9.24;94.83
8229;BME280;4155;50.118;8.714;2022-11-15T04:09:54;99652.22;;;9.30;94.61
8229;BME280;4155;50.118;8.714;2022-11-15T04:12:33;99660.75;;;9.46;94.66
8229;BME280;4155;50.118;8.714;2022-11-15T04:15:04;99647.19;;;9.54;93.97
8229;BME280;4155;50.118;8.714;2022-11-15T04:17:37;99652.59;;;9.61;94.07
8229;BME280;4155;50.118;8.714;2022-11-15T04:20:09;99647.69;;;9.71;93.23
8229;BME280;4155;50.118;8.714;2022-11-15T04:23:05;99647.97;;;9.90;92.84
8229;BME280;4155;50.118;8.714;2022-11-15T04:25:52;99636.00;;;9.92;92.19
8229;BME280;4155;50.118;8.714;2022-11-15T04:28:21;99638.69;;;9.99;92.18
8229;BME280;4155;50.118;8.714;2022-11-15T04:30:49;99637.06;;;10.04;91.72
8229;BME280;4155;50.118;8.714;2022-11-15T04:33:16;99633.97;;;10.01;91.34
8229;BME280;4155;50.118;8.714;2022-11-15T04:35:44;99626.34;;;9.91;91.25
8229;BME280;4155;50.118;8.714;2022-11-15T04:38:33;99632.19;;;9.67;91.22
8229;BME280;4155;50.118;8.714;2022-11-15T04:41:00;99629.69;;;9.52;92.30
8229;BME280;4155;50.118;8.714;2022-11-15T04:43:28;99634.16;;;9.45;92.75
8229;BME280;4155;50.118;8.714;2022-11-15T04:45:57;99623.72;;;9.56;92.35
8229;BME280;4155;50.118;8.714;2022-11-15T04:48:24;99620.50;;;9.68;92.39
8229;BME280;4155;50.118;8.714;2022-11-15T04:50:54;99619.84;;;9.59;92.18
8229;BME280;4155;50.118;8.714;2022-11-15T04:53:22;99618.56;;;9.48;92.48
8229;BME280;4155;50.118;8.714;2022-11-15T04:55:51;99622.31;;;9.61;92.55
8229;BME280;4155;50.118;8.714;2022-11-15T04:58:18;99605.25;;;9.68;91.94
8229;BME280;4155;50.118;8.714;2022-11-15T05:00:46;99613.72;;;9.78;91.88
8229;BME280;4155;50.118;8.714;2022-11-15T05:03:14;99610.41;;;9.70;91.66
8229;BME280;4155;50.118;8.714;2022-11-15T05:06:00;99605.50;;;9.80;91.71
8229;BME280;4155;50.118;8.714;2022-11-15T05:08:28;99614.16;;;9.89;90.81
8229;BME280;4155;50.118;8.714;2022-11-15T05:10:57;99612.50;;;9.81;90.97
8229;BME280;4155;50.118;8.714;2022-11-15T05:13:25;99610.66;;;9.81;91.20
8229;BME280;4155;50.118;8.714;2022-11-15T05:15:53;99600.34;;;9.78;90.93
8229;BME280;4155;50.118;8.714;2022-11-15T05:18:21;99605.88;;;9.77;91.28
8229;BME280;4155;50.118;8.714;2022-11-15T05:20:49;99599.94;;;9.81;91.02
8229;BME280;4155;50.118;8.714;2022-11-15T05:23:17;99604.44;;;9.74;91.36
8229;BME280;4155;50.118;8.714;2022-11-15T05:25:44;99616.34;;;9.59;91.40
8229;BME280;4155;50.118;8.714;2022-11-15T05:28:13;99616.66;;;9.42;92.00
8229;BME280;4155;50.118;8.714;2022-11-15T05:30:41;99611.47;;;9.34;92.81
8229;BME280;4155;50.118;8.714;2022-11-15T05:33:08;99605.13;;;9.42;93.06
8229;BME280;4155;50.118;8.714;2022-11-15T05:35:40;99602.03;;;9.38;92.90
8229;BME280;4155;50.118;8.714;2022-11-15T05:38:09;99592.00;;;9.47;93.26
8229;BME280;4155;50.118;8.714;2022-11-15T05:40:36;99601.03;;;9.46;93.42
8229;BME280;4155;50.118;8.714;2022-11-15T05:43:04;99594.69;;;9.53;93.37
8229;BME280;4155;50.118;8.714;2022-11-15T05:45:34;99591.34;;;9.45;93.04
8229;BME280;4155;50.118;8.714;2022-11-15T05:48:06;99596.69;;;9.38;93.34
8229;BME280;4155;50.118;8.714;2022-11-15T05:50:36;99594.19;;;9.30;93.82
8229;BME280;4155;50.118;8.714;2022-11-15T05:53:06;99602.56;;;9.20;94.22
8229;BME280;4155;50.118;8.714;2022-11-15T05:55:37;99585.28;;;9.16;94.73
8229;BME280;4155;50.118;8.714;2022-11-15T05:58:06;99583.69;;;9.28;94.48
8229;BME280;4155;50.118;8.714;2022-11-15T06:00:35;99578.16;;;9.43;94.76
8229;BME280;4155;50.118;8.714;2022-11-15T06:03:05;99576.53;;;9.42;94.75
8229;BME280;4155;50.118;8.714;2022-11-15T06:05:34;99579.66;;;9.52;94.18
8229;BME280;4155;50.118;8.714;2022-11-15T06:08:02;99583.72;;;9.42;94.31
8229;BME280;4155;50.118;8.714;2022-11-15T06:10:29;99583.16;;;9.53;93.93
8229;BME280;4155;50.118;8.714;2022-11-15T06:12:57;99581.47;;;9.45;93.63
8229;BME280;4155;50.118;8.714;2022-11-15T06:15:25;99590.16;;;9.47;94.06
8229;BME280;4155;50.118;8.714;2022-11-15T06:17:57;99595.72;;;9.52;93.78
8229;BME280;4155;50.118;8.714;2022-11-15T06:20:26;99589.94;;;9.55;93.24
8229;BME280;4155;50.118;8.714;2022-11-15T06:22:57;99581.28;;;9.53;93.35
8229;BME280;4155;50.118;8.714;2022-11-15T06:25:26;99586.06;;;9.58;93.36
8229;BME280;4155;50.118;8.714;2022-11-15T06:27:58;99585.44;;;9.63;93.81
8229;BME280;4155;50.118;8.714;2022-11-15T06:30:26;99583.84;;;9.68;93.46
8229;BME280;4155;50.118;8.714;2022-11-15T06:33:00;99586.31;;;9.76;93.08
8229;BME280;4155;50.118;8.714;2022-11-15T06:35:29;99585.09;;;9.85;92.86
8229;BME280;4155;50.118;8.714;2022-11-15T06:38:02;99589.63;;;9.85;92.66
8229;BME280;4155;50.118;8.714;2022-11-15T06:40:38;99602.88;;;10.06;92.47
8229;BME280;4155;50.118;8.714;2022-11-15T06:43:15;99591.31;;;10.06;91.76
8229;BME280;4155;50.118;8.714;2022-11-15T06:45:43;99595.88;;;10.19;91.76
8229;BME280;4155;50.118;8.714;2022-11-15T06:48:12;99595.50;;;10.28;91.46
8229;BME280;4155;50.118;8.714;2022-11-15T06:50:41;99599.41;;;10.39;91.02
8229;BME280;4155;50.118;8.714;2022-11-15T06:53:09;99586.84;;;10.39;90.50
8229;BME280;4155;50.118;8.714;2022-11-15T06:55:36;99594.50;;;10.42;90.42
8229;BME280;4155;50.118;8.714;2022-11-15T06:58:04;99594.06;;;10.39;90.51
8229;BME280;4155;50.118;8.714;2022-11-15T07:00:33;99577.13;;;10.19;90.56
8229;BME280;4155;50.118;8.714;2022-11-15T07:03:02;99592.41;;;10.31;90.51
8229;BME280;4155;50.118;8.714;2022-11-15T07:05:31;99595.28;;;10.30;90.73
8229;BME280;4155;50.118;8.714;2022-11-15T07:08:00;99596.13;;;10.30;90.75
8229;BME280;4155;50.118;8.714;2022-11-15T07:10:28;99590.13;;;10.41;90.84
8229;BME280;4155;50.118;8.714;2022-11-15T07:12:56;99591.38;;;10.39;90.14
8229;BME280;4155;50.118;8.714;2022-11-15T07:15:26;99601.91;;;10.47;89.41
8229;BME280;4155;50.118;8.714;2022-11-15T07:17:53;99604.56;;;10.40;89.54
8229;BME280;4155;50.118;8.714;2022-11-15T07:20:21;99604.38;;;10.35;89.40
8229;BME280;4155;50.118;8.714;2022-11-15T07:22:50;99603.56;;;10.35;89.83
8229;BME280;4155;50.118;8.714;2022-11-15T07:25:17;99605.19;;;10.49;89.67
8229;BME280;4155;50.118;8.714;2022-11-15T07:27:54;99604.19;;;10.63;89.27
8229;BME280;4155;50.118;8.714;2022-11-15T07:30:22;99607.22;;;10.93;88.06
8229;BME280;4155;50.118;8.714;2022-11-15T07:32:52;99608.16;;;11.32;87.18
8229;BME280;4155;50.118;8.714;2022-11-15T07:35:20;99600.84;;;11.59;85.41
8229;BME280;4155;50.118;8.714;2022-11-15T07:37:58;99599.38;;;12.08;83.35
8229;BME280;4155;50.118;8.714;2022-11-15T07:40:27;99592.25;;;12.20;80.81
8229;BME280;4155;50.118;8.714;2022-11-15T07:42:59;99599.66;;;12.74;79.71
8229;BME280;4155;50.118;8.714;2022-11-15T07:45:27;99588.72;;;12.94;75.49
8229;BME280;4155;50.118;8.714;2022-11-15T07:47:55;99596.78;;;13.19;74.99
8229;BME280;4155;50.118;8.714;2022-11-15T07:50:23;99588.25;;;13.22;74.51
8229;BME280;4155;50.118;8.714;2022-11-15T07:52:55;99592.81;;;12.54;76.14
8229;BME280;4155;50.118;8.714;2022-11-15T07:55:26;99593.47;;;12.49;76.95
8229;BME280;4155;50.118;8.714;2022-11-15T07:58:00;99581.56;;;12.13;78.53
8229;BME280;4155;50.118;8.714;2022-11-15T08:00:28;99589.59;;;11.75;81.35
8229;BME280;4155;50.118;8.714;2022-11-15T08:03:03;99592.50;;;11.80;80.71
8229;BME280;4155;50.118;8.714;2022-11-15T08:05:31;99584.53;;;11.54;82.44
8229;BME280;4155;50.118;8.714;2022-11-15T08:08:01;99585.28;;;11.68;82.47
8229;BME280;4155;50.118;8.714;2022-11-15T08:10:31;99579.50;;;11.71;82.35
8229;BME280;4155;50.118;8.714;2022-11-15T08:13:08;99594.09;;;11.88;81.46
8229;BME280;4155;50.118;8.714;2022-11-15T08:15:36;99586.69;;;11.83;81.61
8229;BME280;4155;50.118;8.714;2022-11-15T08:18:05;99586.38;;;11.60;82.58
8229;BME280;4155;50.118;8.714;2022-11-15T08:20:34;99582.25;;;11.57;82.20
8229;BME280;4155;50.118;8.714;2022-11-15T08:23:03;99593.84;;;11.96;81.78
8229;BME280;4155;50.118;8.714;2022-11-15T08:25:34;99595.81;;;12.14;80.93
8229;BME280;4155;50.118;8.714;2022-11-15T08:28:03;99589.53;;;12.27;80.18
8229;BME280;4155;50.118;8.714;2022-11-15T08:30:35;99584.97;;;12.27;80.04
8229;BME280;4155;50.118;8.714;2022-11-15T08:33:05;99594.19;;;12.38;80.16
8229;BME280;4155;50.118;8.714;2022-11-15T08:35:32;99600.63;;;12.37;80.19
8229;BME280;4155;50.118;8.714;2022-11-15T08:38:00;99591.88;;;12.41;79.96
8229;BME280;4155;50.118;8.714;2022-11-15T08:40:28;99591.63;;;12.50;80.33
8229;BME280;4155;50.118;8.714;2022-11-15T08:42:57;99593.81;;;12.59;80.52
8229;BME280;4155;50.118;8.714;2022-11-15T08:45:25;99591.56;;;12.56;79.33
8229;BME280;4155;50.118;8.714;2022-11-15T08:47:53;99577.66;;;12.59;79.38
8229;BME280;4155;50.118;8.714;2022-11-15T08:50:20;99583.50;;;12.56;78.71
8229;BME280;4155;50.118;8.714;2022-11-15T08:52:48;99577.47;;;12.36;79.82
8229;BME280;4155;50.118;8.714;2022-11-15T08:55:16;99574.38;;;12.32;79.87
8229;BME280;4155;50.118;8.714;2022-11-15T08:57:44;99578.63;;;12.47;79.66
8229;BME280;4155;50.118;8.714;2022-11-15T09:00:14;99578.38;;;12.48;79.55
8229;BME280;4155;50.118;8.714;2022-11-15T09:02:42;99569.28;;;12.49;79.13
8229;BME280;4155;50.118;8.714;2022-11-15T09:05:09;99569.50;;;12.48;79.92
8229;BME280;4155;50.118;8.714;2022-11-15T09:07:37;99574.44;;;12.51;79.47
8229;BME280;4155;50.118;8.714;2022-11-15T09:10:06;99570.56;;;12.65;79.03
8229;BME280;4155;50.118;8.714;2022-11-15T09:12:34;99578.84;;;12.88;78.24
8229;BME280;4155;50.118;8.714;2022-11-15T09:15:02;99577.22;;;13.06;77.59
8229;BME280;4155;50.118;8.714;2022-11-15T09:17:31;99572.56;;;13.19;76.68
8229;BME280;4155;50.118;8.714;2022-11-15T09:19:58;99562.81;;;13.37;76.92
8229;BME280;4155;50.118;8.714;2022-11-15T09:22:26;99560.75;;;13.50;76.73
8229;BME280;4155;50.118;8.714;2022-11-15T09:24:54;99558.41;;;13.72;76.08
8229;BME280;4155;50.118;8.714;2022-11-15T09:27:22;99562.84;;;13.67;76.00
8229;BME280;4155;50.118;8.714;2022-11-15T09:29:50;99567.75;;;14.00;75.41
8229;BME280;4155;50.118;8.714;2022-11-15T09:32:17;99552.81;;;14.15;74.29
8229;BME280;4155;50.118;8.714;2022-11-15T09:34:47;99552.13;;;14.43;73.90
8229;BME280;4155;50.118;8.714;2022-11-15T09:37:15;99555.81;;;14.61;72.99
8229;BME280;4155;50.118;8.714;2022-11-15T09:39:43;99558.88;;;14.64;72.62
8229;BME280;4155;50.118;8.714;2022-11-15T09:42:27;99555.06;;;14.42;72.99
8229;BME280;4155;50.118;8.714;2022-11-15T09:45:08;99555.28;;;14.29;73.59
8229;BME280;4155;50.118;8.714;2022-11-15T09:47:51;99544.81;;;14.09;73.61
8229;BME280;4155;50.118;8.714;2022-11-15T09:50:32;99544.44;;;13.94;74.62
8229;BME280;4155;50.118;8.714;2022-11-15T09:53:11;99540.91;;;13.93;74.72
8229;BME280;4155;50.118;8.714;2022-11-15T09:55:45;99537.94;;;13.83;75.16
8229;BME280;4155;50.118;8.714;2022-11-15T09:58:20;99539.03;;;13.94;75.18
8229;BME280;4155;50.118;8.714;2022-11-15T10:00:51;99532.47;;;14.01;75.43
8229;BME280;4155;50.118;8.714;2022-11-15T10:03:25;99528.16;;;14.12;75.74
8229;BME280;4155;50.118;8.714;2022-11-15T10:05:57;99516.88;;;14.03;75.01
8229;BME280;4155;50.118;8.714;2022-11-15T10:08:31;99524.47;;;13.83;76.21
8229;BME280;4155;50.118;8.714;2022-11-15T10:11:05;99519.81;;;14.02;75.44
8229;BME280;4155;50.118;8.714;2022-11-15T10:13:56;99517.63;;;14.22;74.39
8229;BME280;4155;50.118;8.714;2022-11-15T10:16:52;99511.91;;;14.65;74.23
8229;BME280;4155;50.118;8.714;2022-11-15T10:19:28;99510.97;;;14.95;73.19
8229;BME280;4155;50.118;8.714;2022-11-15T10:22:14;99503.47;;;14.85;72.57
8229;BME280;4155;50.118;8.714;2022-11-15T10:24:45;99485.09;;;15.11;72.42
8229;BME280;4155;50.118;8.714;2022-11-15T10:27:17;99495.56;;;14.95;72.46
8229;BME280;4155;50.118;8.714;2022-11-15T10:29:47;99484.91;;;15.00;72.35
8229;BME280;4155;50.118;8.714;2022-11-15T10:32:17;99480.75;;;15.10;72.30
8229;BME280;4155;50.118;8.714;2022-11-15T10:34:45;99485.25;;;14.92;72.52
8229;BME280;4155;50.118;8.714;2022-11-15T10:37:27;99483.72;;;14.96;72.82
8229;BME280;4155;50.118;8.714;2022-11-15T10:40:06;99479.59;;;15.05;73.17
8229;BME280;4155;50.118;8.714;2022-11-15T10:42:41;99483.22;;;15.11;73.01
8229;BME280;4155;50.118;8.714;2022-11-15T10:45:25;99483.72;;;14.96;73.81
8229;BME280;4155;50.118;8.714;2022-11-15T10:47:53;99470.47;;;14.95;73.21
8229;BME280;4155;50.118;8.714;2022-11-15T10:50:43;99466.81;;;15.01;72.95
8229;BME280;4155;50.118;8.714;2022-11-15T10:53:18;99471.41;;;15.00;72.63
8229;BME280;4155;50.118;8.714;2022-11-15T10:55:50;99460.72;;;14.94;73.31
8229;BME280;4155;50.118;8.714;2022-11-15T10:58:22;99469.78;;;14.76;73.84
8229;BME280;4155;50.118;8.714;2022-11-15T11:00:56;99468.63;;;14.72;74.04
8229;BME280;4155;50.118;8.714;2022-11-15T11:03:37;99457.69;;;14.90;73.71
8229;BME280;4155;50.118;8.714;2022-11-15T11:06:09;99453.16;;;14.56;74.05
8229;BME280;4155;50.118;8.714;2022-11-15T11:08:38;99433.19;;;14.33;75.05
8229;BME280;4155;50.118;8.714;2022-11-15T11:11:07;99437.31;;;14.24;75.30
8229;BME280;4155;50.118;8.714;2022-11-15T11:13:36;99433.44;;;14.20;76.01
8229;BME280;4155;50.118;8.714;2022-11-15T11:19:23;99420.19;;;14.42;75.45
8229;BME280;4155;50.118;8.714;2022-11-15T11:22:01;99423.38;;;14.51;74.98
8229;BME280;4155;50.118;8.714;2022-11-15T11:24:38;99414.41;;;14.73;74.13
8229;BME280;4155;50.118;8.714;2022-11-15T11:27:22;99416.41;;;14.78;74.16
8229;BME280;4155;50.118;8.714;2022-11-15T11:30:05;99408.69;;;14.98;73.25
8229;BME280;4155;50.118;8.714;2022-11-15T11:32:45;99412.75;;;15.13;73.22
8229;BME280;4155;50.118;8.714;2022-11-15T11:35:24;99406.81;;;14.99;72.92
8229;BME280;4155;50.118;8.714;2022-11-15T11:38:04;99405.50;;;14.73;74.70
8229;BME280;4155;50.118;8.714;2022-11-15T11:40:40;99395.66;;;14.55;74.77
8229;BME280;4155;50.118;8.714;2022-11-15T11:43:16;99394.41;;;14.58;74.97
8229;BME280;4155;50.118;8.714;2022-11-15T11:46:02;99380.13;;;14.74;74.59
8229;BME280;4155;50.118;8.714;2022-11-15T11:48:41;99387.22;;;14.63;75.17
8229;BME280;4155;50.118;8.714;2022-11-15T11:51:15;99385.53;;;14.74;75.35
8229;BME280;4155;50.118;8.714;2022-11-15T11:53:48;99383.44;;;14.64;74.63
8229;BME280;4155;50.118;8.714;2022-11-15T11:56:23;99377.16;;;14.47;75.27
8229;BME280;4155;50.118;8.714;2022-11-15T11:58:54;99383.22;;;14.42;76.02
8229;BME280;4155;50.118;8.714;2022-11-15T12:01:25;99377.84;;;14.42;75.71
8229;BME280;4155;50.118;8.714;2022-11-15T12:03:58;99374.31;;;14.42;76.41
8229;BME280;4155;50.118;8.714;2022-11-15T12:06:32;99367.28;;;14.53;75.87
8229;BME280;4155;50.118;8.714;2022-11-15T12:09:04;99366.19;;;14.65;75.30
8229;BME280;4155;50.118;8.714;2022-11-15T12:11:48;99362.25;;;14.85;75.28
8229;BME280;4155;50.118;8.714;2022-11-15T12:14:26;99358.03;;;14.89;74.91
8229;BME280;4155;50.118;8.714;2022-11-15T12:16:55;99358.44;;;14.97;73.61
8229;BME280;4155;50.118;8.714;2022-11-15T12:19:22;99347.56;;;14.92;74.26
8229;BME280;4155;50.118;8.714;2022-11-15T12:21:55;99352.53;;;15.12;73.90
8229;BME280;4155;50.118;8.714;2022-11-15T12:24:26;99342.44;;;15.08;73.94
8229;BME280;4155;50.118;8.714;2022-11-15T12:27:00;99334.97;;;14.98;74.57
8229;BME280;4155;50.118;8.714;2022-11-15T12:29:34;99334.78;;;14.88;75.21
8229;BME280;4155;50.118;8.714;2022-11-15T12:32:04;99334.41;;;14.96;75.36
8229;BME280;4155;50.118;8.714;2022-11-15T12:34:42;99326.97;;;15.03;74.67
8229;BME280;4155;50.118;8.714;2022-11-15T12:40:34;99313.19;;;14.88;75.82
8229;BME280;4155;50.118;8.714;2022-11-15T12:43:36;99312.66;;;15.02;75.45
8229;BME280;4155;50.118;8.714;2022-11-15T12:46:11;99323.59;;;14.96;75.66
8229;BME280;4155;50.118;8.714;2022-11-15T12:48:53;99327.69;;;14.98;75.49
8229;BME280;4155;50.118;8.714;2022-11-15T12:54:56;99314.84;;;14.89;75.81
8229;BME280;4155;50.118;8.714;2022-11-15T12:57:42;99322.09;;;14.88;75.43
8229;BME280;4155;50.118;8.714;2022-11-15T13:00:45;99306.78;;;14.77;76.19
8229;BME280;4155;50.118;8.714;2022-11-15T13:03:24;99307.94;;;14.81;76.42
8229;BME280;4155;50.118;8.714;2022-11-15T13:06:03;99304.75;;;14.84;76.72
8229;BME280;4155;50.118;8.714;2022-11-15T13:08:48;99300.13;;;14.96;76.24
8229;BME280;4155;50.118;8.714;2022-11-15T13:11:43;99297.94;;;15.10;75.72
8229;BME280;4155;50.118;8.714;2022-11-15T13:17:29;99292.13;;;15.18;75.16
8229;BME280;4155;50.118;8.714;2022-11-15T13:20:25;99284.09;;;15.07;76.26
8229;BME280;4155;50.118;8.714;2022-11-15T13:23:08;99294.78;;;14.85;77.08
8229;BME280;4155;50.118;8.714;2022-11-15T13:26:01;99288.34;;;14.57;77.97
8229;BME280;4155;50.118;8.714;2022-11-15T13:28:33;99288.72;;;14.37;78.70
8229;BME280;4155;50.118;8.714;2022-11-15T13:31:30;99290.59;;;14.37;78.46
8229;BME280;4155;50.118;8.714;2022-11-15T13:34:16;99276.88;;;14.38;78.89
8229;BME280;4155;50.118;8.714;2022-11-15T13:37:09;99267.94;;;14.50;78.90
8229;BME280;4155;50.118;8.714;2022-11-15T13:39:40;99265.25;;;14.50;79.12
8229;BME280;4155;50.118;8.714;2022-11-15T13:42:14;99259.88;;;14.66;77.96
8229;BME280;4155;50.118;8.714;2022-11-15T13:44:54;99253.03;;;14.59;77.96
8229;BME280;4155;50.118;8.714;2022-11-15T13:47:25;99252.09;;;14.41;79.28
8229;BME280;4155;50.118;8.714;2022-11-15T13:49:57;99247.91;;;14.34;79.82
8229;BME280;4155;50.118;8.714;2022-11-15T13:52:28;99242.34;;;14.12;80.63
8229;BME280;4155;50.118;8.714;2022-11-15T13:55:00;99242.34;;;14.12;80.62
8229;BME280;4155;50.118;8.714;2022-11-15T13:57:38;99237.31;;;14.15;80.17
8229;BME280;4155;50.118;8.714;2022-11-15T14:00:26;99233.81;;;14.15;79.71
8229;BME280;4155;50.118;8.714;2022-11-15T14:02:55;99241.88;;;14.15;79.94
8229;BME280;4155;50.118;8.714;2022-11-15T14:05:25;99230.63;;;14.18;80.16
8229;BME280;4155;50.118;8.714;2022-11-15T14:07:54;99228.50;;;14.20;79.91
8229;BME280;4155;50.118;8.714;2022-11-15T14:10:28;99220.06;;;14.16;79.77
8229;BME280;4155;50.118;8.714;2022-11-15T14:12:56;99224.91;;;14.14;79.66